Time;durP1;ratioP1;P1;durP2;ratioP2;P2;SDS_P1;SDS_P2;PMS_P1;PMS_P2;Temp;Humidity;BMP_temperature;BMP_pressure;BME280_temperature;BME280_humidity;BME280_pressure;Samples;Min_cycle;Max_cycle;Signal;HPM_P1;HPM_P2
2022/07/30 00:01:50;;;;;;;7.50;4.43;;;17.00;94.40;;;;;;5093492;28;20085;-64
2022/07/30 00:04:16;;;;;;;9.38;5.35;;;17.00;94.50;;;;;;5093191;28;20024;-57
2022/07/30 00:06:41;;;;;;;7.80;4.43;;;16.90;94.60;;;;;;5093602;28;20024;-56
2022/07/30 00:09:07;;;;;;;11.40;5.30;;;16.90;94.80;;;;;;5074482;28;20039;-52
2022/07/30 00:11:33;;;;;;;10.63;5.20;;;16.80;95.10;;;;;;5093669;28;20027;-54
2022/07/30 00:13:59;;;;;;;9.15;5.15;;;16.80;95.30;;;;;;5074985;28;20039;-54
2022/07/30 00:16:25;;;;;;;9.10;5.78;;;16.70;95.70;;;;;;5092968;28;20024;-55
2022/07/30 00:18:50;;;;;;;10.98;6.50;;;16.70;96.10;;;;;;5093286;28;20020;-59
2022/07/30 00:21:16;;;;;;;10.38;5.50;;;16.70;96.60;;;;;;5093301;28;20074;-57
2022/07/30 00:23:42;;;;;;;11.52;5.20;;;16.70;96.80;;;;;;5092389;28;20031;-53
2022/07/30 00:26:07;;;;;;;10.52;5.90;;;16.70;96.90;;;;;;5093176;28;20083;-55
2022/07/30 00:28:33;;;;;;;8.85;5.65;;;16.70;97.00;;;;;;5093283;28;20095;-56
2022/07/30 00:31:00;;;;;;;11.48;6.13;;;16.60;96.90;;;;;;5092236;28;20024;-54
2022/07/30 00:33:26;;;;;;;9.10;5.55;;;16.70;97.20;;;;;;5092819;28;20051;-55
2022/07/30 00:35:51;;;;;;;10.05;5.78;;;16.60;97.20;;;;;;5074675;28;20024;-56
2022/07/30 00:38:17;;;;;;;10.85;5.55;;;16.60;97.30;;;;;;5074288;28;20031;-55
2022/07/30 00:40:42;;;;;;;13.27;5.55;;;16.50;97.40;;;;;;5092998;28;20024;-55
2022/07/30 00:43:13;;;;;;;10.27;5.97;;;16.50;97.40;;;;;;5074545;28;20023;-57
2022/07/30 00:45:39;;;;;;;12.18;5.88;;;16.50;97.40;;;;;;5074093;28;20380;-52
2022/07/30 00:48:04;;;;;;;10.55;6.25;;;16.50;97.50;;;;;;5092723;28;20099;-55
2022/07/30 00:50:30;;;;;;;10.10;6.03;;;16.50;97.60;;;;;;5092802;28;20028;-53
2022/07/30 00:52:56;;;;;;;11.43;5.78;;;16.50;97.80;;;;;;5091754;28;20111;-56
2022/07/30 00:55:22;;;;;;;13.13;6.22;;;16.40;97.80;;;;;;5092770;28;20036;-57
2022/07/30 00:57:47;;;;;;;11.05;6.28;;;16.40;98.00;;;;;;5092366;28;20021;-55
2022/07/30 01:00:15;;;;;;;13.38;6.90;;;16.40;98.00;;;;;;5091876;28;20059;-55
2022/07/30 01:02:41;;;;;;;10.75;6.20;;;16.40;98.20;;;;;;5092546;28;20024;-58
2022/07/30 01:05:07;;;;;;;12.90;7.05;;;16.40;98.20;;;;;;5092458;28;20358;-58
2022/07/30 01:07:33;;;;;;;10.98;6.43;;;16.40;98.20;;;;;;5091720;28;20481;-56
2022/07/30 01:09:59;;;;;;;12.23;6.93;;;16.30;98.30;;;;;;5092095;28;20100;-56
2022/07/30 01:12:25;;;;;;;10.60;6.03;;;16.30;98.60;;;;;;5091785;28;20061;-58
2022/07/30 01:14:52;;;;;;;11.98;6.03;;;16.30;98.50;;;;;;5091990;28;20123;-56
2022/07/30 01:17:18;;;;;;;11.63;6.15;;;16.30;98.60;;;;;;5092254;28;20077;-57
2022/07/30 01:19:52;;;;;;;9.20;5.35;;;16.30;98.50;;;;;;5091765;28;20038;-57
2022/07/30 01:22:29;;;;;;;11.80;6.35;;;16.30;98.50;;;;;;5092267;28;20052;-63
2022/07/30 01:25:23;;;;;;;13.30;6.72;;;16.30;98.50;;;;;;5092421;28;20072;-69
2022/07/30 01:27:56;;;;;;;10.25;6.10;;;16.30;98.60;;;;;;5091627;28;20103;-71
2022/07/30 01:30:26;;;;;;;13.43;7.00;;;16.20;98.50;;;;;;5092205;28;20405;-70
2022/07/30 01:32:55;;;;;;;13.85;7.35;;;16.20;98.70;;;;;;5091632;28;20119;-72
2022/07/30 01:35:23;;;;;;;11.65;7.05;;;16.20;99.00;;;;;;5091139;28;20021;-72
2022/07/30 01:37:51;;;;;;;12.07;6.72;;;16.20;98.80;;;;;;5092462;28;20023;-73
2022/07/30 01:40:19;;;;;;;10.88;6.53;;;16.20;99.00;;;;;;5092135;28;20544;-71
2022/07/30 01:42:47;;;;;;;14.60;7.35;;;16.20;99.00;;;;;;5091602;28;20115;-71
2022/07/30 01:45:14;;;;;;;13.45;7.20;;;16.20;99.10;;;;;;5092119;28;20027;-72
2022/07/30 01:47:42;;;;;;;10.75;6.70;;;16.20;99.20;;;;;;5091417;28;20024;-72
2022/07/30 01:50:14;;;;;;;14.18;7.20;;;16.20;99.00;;;;;;5091948;28;20052;-70
2022/07/30 01:52:44;;;;;;;10.98;6.45;;;16.10;99.00;;;;;;5092020;28;20027;-71
2022/07/30 01:55:14;;;;;;;13.67;7.70;;;16.10;99.10;;;;;;5090930;28;20047;-67
2022/07/30 01:57:40;;;;;;;12.00;6.87;;;16.00;99.20;;;;;;5092172;28;20020;-72
2022/07/30 02:00:06;;;;;;;13.13;7.35;;;16.00;99.20;;;;;;5091628;28;20349;-71
2022/07/30 02:02:37;;;;;;;12.35;7.88;;;16.00;99.30;;;;;;5091268;28;20024;-70
2022/07/30 02:05:03;;;;;;;12.15;6.97;;;15.90;99.30;;;;;;5091659;28;20024;-60
2022/07/30 02:07:54;;;;;;;12.57;7.47;;;15.90;99.40;;;;;;5091985;28;20461;-58
2022/07/30 02:10:29;;;;;;;13.00;7.47;;;15.80;99.50;;;;;;5090295;28;20488;-66
2022/07/30 02:12:56;;;;;;;12.30;7.07;;;15.80;99.60;;;;;;5091106;28;20016;-64
2022/07/30 02:15:30;;;;;;;13.20;6.97;;;15.80;99.70;;;;;;5073433;28;20052;-67
2022/07/30 02:18:02;;;;;;;14.00;7.22;;;15.70;99.70;;;;;;5090663;28;20031;-69
2022/07/30 02:20:30;;;;;;;15.60;6.90;;;15.60;99.90;;;;;;5073342;28;20024;-69
2022/07/30 02:23:02;;;;;;;18.63;7.57;;;15.60;99.90;;;;;;5090478;28;20059;-70
2022/07/30 02:25:30;;;;;;;14.45;8.40;;;15.60;99.90;;;;;;5091444;28;20026;-62
2022/07/30 02:28:02;;;;;;;14.88;8.00;;;15.70;99.90;;;;;;5091067;28;20027;-64
2022/07/30 02:30:29;;;;;;;;;;;15.70;99.90;;;;;;5091048;28;20411;-63
2022/07/30 02:33:09;;;;;;;13.93;7.95;;;15.70;99.90;;;;;;5090566;28;19969;-63
2022/07/30 02:35:36;;;;;;;14.70;7.72;;;15.70;99.90;;;;;;5091105;28;20546;-62
2022/07/30 02:38:03;;;;;;;15.15;7.93;;;15.70;99.90;;;;;;5090403;28;20020;-63
2022/07/30 02:40:28;;;;;;;13.50;7.38;;;15.70;99.90;;;;;;5091137;28;20032;-63
2022/07/30 02:42:55;;;;;;;13.57;8.07;;;15.70;99.90;;;;;;5072560;28;20026;-57
2022/07/30 02:45:23;;;;;;;17.90;8.43;;;15.60;99.90;;;;;;5090110;28;20035;-55
2022/07/30 02:47:59;;;;;;;16.35;8.40;;;15.70;99.90;;;;;;5090626;28;20464;-64
2022/07/30 02:50:27;;;;;;;15.77;9.02;;;15.80;99.90;;;;;;5090999;28;20050;-53
2022/07/30 02:52:54;;;;;;;13.32;8.27;;;15.90;99.90;;;;;;5090042;28;20016;-70
2022/07/30 02:55:22;;;;;;;15.73;8.52;;;16.00;99.90;;;;;;5091186;28;20551;-58
2022/07/30 02:57:51;;;;;;;20.23;9.77;;;16.10;99.90;;;;;;5090548;28;20016;-59
2022/07/30 03:00:17;;;;;;;15.98;9.48;;;16.20;99.90;;;;;;5090893;28;20067;-66
2022/07/30 03:02:43;;;;;;;20.45;9.15;;;16.20;99.90;;;;;;5090897;28;20028;-60
2022/07/30 03:05:10;;;;;;;18.55;8.43;;;16.30;99.90;;;;;;5090056;28;20042;-54
2022/07/30 03:07:37;;;;;;;15.20;9.60;;;16.30;99.90;;;;;;5090812;28;20020;-53
2022/07/30 03:10:03;;;;;;;15.77;9.70;;;16.40;99.90;;;;;;5090655;28;20024;-64
2022/07/30 03:12:31;;;;;;;16.42;9.60;;;16.40;99.90;;;;;;5090201;28;20064;-72
2022/07/30 03:14:57;;;;;;;15.85;9.55;;;16.40;99.90;;;;;;5090406;28;20035;-65
2022/07/30 03:17:27;;;;;;;17.13;9.07;;;16.40;99.90;;;;;;5090753;28;20023;-71
2022/07/30 03:19:54;;;;;;;15.82;8.93;;;16.40;99.90;;;;;;5090040;28;20047;-56
2022/07/30 03:22:22;;;;;;;14.18;8.35;;;16.50;99.90;;;;;;5090741;28;20039;-56
2022/07/30 03:24:49;;;;;;;18.77;10.43;;;16.40;99.90;;;;;;5090148;28;20020;-56
2022/07/30 03:27:17;;;;;;;16.88;9.05;;;16.40;99.90;;;;;;5071749;28;20020;-55
2022/07/30 03:29:44;;;;;;;18.98;9.98;;;16.50;99.90;;;;;;5089160;28;20038;-53
2022/07/30 03:32:11;;;;;;;13.20;8.07;;;16.50;99.90;;;;;;5089027;28;20043;-53
2022/07/30 03:34:37;;;;;;;15.68;9.80;;;16.50;99.90;;;;;;5089523;28;20106;-55
2022/07/30 03:37:04;;;;;;;17.63;9.60;;;16.50;99.90;;;;;;5078516;28;20375;-56
2022/07/30 03:39:33;;;;;;;14.65;8.65;;;16.50;99.90;;;;;;5052037;28;20029;-65
2022/07/30 03:41:59;;;;;;;19.85;10.90;;;16.40;99.90;;;;;;5069593;28;20020;-64
2022/07/30 03:44:26;;;;;;;12.70;8.20;;;16.40;99.90;;;;;;5070426;28;20036;-63
2022/07/30 03:46:52;;;;;;;14.85;9.23;;;16.50;99.90;;;;;;5051845;28;20025;-68
2022/07/30 03:49:20;;;;;;;15.52;9.57;;;16.50;99.90;;;;;;5081437;28;20082;-64
2022/07/30 03:51:46;;;;;;;16.35;9.65;;;16.50;99.80;;;;;;5089962;28;20372;-57
2022/07/30 03:54:12;;;;;;;16.67;9.23;;;16.50;99.90;;;;;;5089662;28;20485;-62
2022/07/30 03:56:38;;;;;;;16.25;9.60;;;16.40;99.90;;;;;;5090356;28;20107;-61
2022/07/30 03:59:04;;;;;;;16.38;9.55;;;16.40;99.90;;;;;;5093429;28;20024;-55
2022/07/30 04:01:30;;;;;;;14.82;10.23;;;16.40;99.90;;;;;;5093073;28;20032;-56
2022/07/30 04:04:16;;;;;;;17.98;10.05;;;16.30;99.90;;;;;;5093285;28;20089;-57
2022/07/30 04:06:42;;;;;;;14.73;9.45;;;16.30;99.90;;;;;;5093084;28;20040;-53
2022/07/30 04:09:09;;;;;;;12.25;9.05;;;16.30;99.90;;;;;;5092432;28;20027;-54
2022/07/30 04:11:35;;;;;;;14.73;8.95;;;16.30;99.90;;;;;;5093324;28;20024;-55
2022/07/30 04:14:01;;;;;;;14.95;9.77;;;16.30;99.90;;;;;;5092821;28;20437;-56
2022/07/30 04:16:46;;;;;;;13.07;9.02;;;16.30;99.80;;;;;;5093034;28;20095;-53
2022/07/30 04:19:18;;;;;;;15.18;9.23;;;16.30;99.80;;;;;;5074899;28;20055;-53
2022/07/30 04:21:46;;;;;;;14.02;9.27;;;16.20;99.80;;;;;;5093186;28;20425;-59
2022/07/30 04:24:14;;;;;;;15.60;8.60;;;16.10;99.90;;;;;;5092404;28;20020;-62
2022/07/30 04:26:40;;;;;;;11.73;8.43;;;16.00;99.90;;;;;;5073852;28;20025;-59
2022/07/30 04:29:09;;;;;;;13.07;8.70;;;16.00;99.90;;;;;;5072480;28;20434;-54
2022/07/30 04:31:35;;;;;;;15.05;8.65;;;15.90;99.90;;;;;;5072135;28;20350;-59
2022/07/30 04:34:04;;;;;;;14.75;8.25;;;15.90;99.90;;;;;;5078968;28;20070;-58
2022/07/30 04:36:32;;;;;;;12.68;7.97;;;15.90;99.90;;;;;;5092574;28;20024;-58
2022/07/30 04:38:59;;;;;;;12.95;7.82;;;15.90;99.90;;;;;;5092775;28;20039;-58
2022/07/30 04:41:25;;;;;;;13.88;8.52;;;15.90;99.90;;;;;;5093004;28;20024;-59
2022/07/30 04:43:51;;;;;;;11.82;8.65;;;15.90;99.90;;;;;;5091064;28;20024;-59
2022/07/30 04:46:17;;;;;;;15.63;9.18;;;15.90;99.90;;;;;;5093146;28;20031;-57
2022/07/30 04:48:43;;;;;;;15.52;8.55;;;15.90;99.90;;;;;;5074232;28;20384;-60
2022/07/30 04:51:13;;;;;;;11.93;7.80;;;16.00;99.90;;;;;;5092038;28;20024;-62
2022/07/30 04:53:41;;;;;;;13.68;8.35;;;16.00;99.90;;;;;;5091508;28;20038;-56
2022/07/30 04:56:08;;;;;;;12.68;7.97;;;16.00;99.90;;;;;;5091758;28;20119;-60
2022/07/30 04:58:34;;;;;;;13.27;8.13;;;16.00;99.90;;;;;;5090571;28;20603;-60
2022/07/30 05:01:01;;;;;;;14.23;7.80;;;16.10;99.90;;;;;;5092392;28;20027;-60
2022/07/30 05:03:29;;;;;;;14.25;7.25;;;16.10;99.90;;;;;;5091591;28;20024;-58
2022/07/30 05:05:56;;;;;;;14.25;7.95;;;16.20;99.90;;;;;;5091730;28;20024;-63
2022/07/30 05:08:23;;;;;;;11.93;8.10;;;16.20;99.90;;;;;;5092638;28;20503;-58
2022/07/30 05:10:49;;;;;;;12.07;7.45;;;16.20;99.90;;;;;;5092072;28;20489;-66
2022/07/30 05:13:15;;;;;;;11.48;7.78;;;16.20;99.80;;;;;;5090929;28;20031;-65
2022/07/30 05:15:43;;;;;;;14.23;7.68;;;16.20;99.70;;;;;;5092742;28;20049;-72
2022/07/30 05:18:09;;;;;;;11.05;6.80;;;16.30;99.80;;;;;;5092276;28;20460;-67
2022/07/30 05:20:35;;;;;;;11.50;7.68;;;16.30;99.60;;;;;;5092135;28;20465;-67
2022/07/30 05:23:02;;;;;;;9.85;6.95;;;16.40;99.60;;;;;;5091309;28;20019;-72
2022/07/30 05:25:28;;;;;;;11.23;7.40;;;16.40;99.40;;;;;;5092751;28;20032;-66
2022/07/30 05:27:55;;;;;;;13.80;7.35;;;16.40;99.40;;;;;;5073134;28;20353;-68
2022/07/30 05:30:21;;;;;;;11.02;7.13;;;16.50;99.30;;;;;;5092524;28;20028;-72
2022/07/30 05:32:47;;;;;;;14.75;6.88;;;16.50;99.10;;;;;;5089461;28;20089;-65
2022/07/30 05:35:12;;;;;;;12.27;7.38;;;16.50;99.00;;;;;;5075780;28;20392;-72
2022/07/30 05:37:38;;;;;;;12.23;7.13;;;16.60;99.00;;;;;;5072220;28;20029;-71
2022/07/30 05:40:04;;;;;;;9.77;6.50;;;16.60;98.90;;;;;;5071045;28;20020;-73
2022/07/30 05:42:30;;;;;;;9.88;6.15;;;16.60;98.80;;;;;;5085423;28;20027;-72
2022/07/30 05:44:55;;;;;;;16.48;6.55;;;16.70;98.70;;;;;;5091996;28;20032;-67
2022/07/30 05:47:21;;;;;;;11.00;5.28;;;16.70;98.60;;;;;;5091112;28;20031;-61
2022/07/30 05:49:47;;;;;;;10.18;6.03;;;16.80;98.50;;;;;;5090518;28;20392;-61
2022/07/30 05:52:13;;;;;;;10.00;6.03;;;16.80;98.30;;;;;;5091788;28;20036;-61
2022/07/30 05:54:39;;;;;;;10.82;5.65;;;16.90;98.30;;;;;;5090992;28;20055;-57
2022/07/30 05:57:04;;;;;;;10.27;6.10;;;16.90;98.20;;;;;;5091097;28;20055;-66
2022/07/30 05:59:30;;;;;;;10.63;6.10;;;17.00;98.10;;;;;;5089892;28;20036;-55
2022/07/30 06:01:56;;;;;;;11.65;6.50;;;17.00;98.10;;;;;;5088833;28;20069;-60
2022/07/30 06:04:21;;;;;;;9.45;5.47;;;17.10;98.00;;;;;;5086349;28;20131;-55
2022/07/30 06:06:47;;;;;;;11.93;5.88;;;17.10;97.90;;;;;;5091145;28;20020;-60
2022/07/30 06:09:13;;;;;;;9.77;5.72;;;17.10;97.70;;;;;;5072779;28;20077;-58
2022/07/30 06:11:38;;;;;;;8.30;5.63;;;17.10;97.40;;;;;;5091289;28;20095;-53
2022/07/30 06:14:04;;;;;;;11.45;4.95;;;17.20;97.40;;;;;;5090274;28;20503;-55
2022/07/30 06:16:30;;;;;;;9.43;5.43;;;17.20;97.30;;;;;;5089679;28;20044;-55
2022/07/30 06:18:56;;;;;;;10.02;6.13;;;17.30;97.20;;;;;;5090929;28;20023;-57
2022/07/30 06:21:21;;;;;;;8.85;4.72;;;17.30;97.10;;;;;;5089991;28;20030;-55
2022/07/30 06:23:47;;;;;;;9.85;5.07;;;17.40;97.10;;;;;;5087951;28;20028;-55
2022/07/30 06:26:13;;;;;;;8.13;5.55;;;17.50;97.10;;;;;;5091228;28;20028;-58
2022/07/30 06:28:39;;;;;;;9.48;5.18;;;17.50;96.70;;;;;;5090029;28;20024;-56
2022/07/30 06:31:05;;;;;;;11.20;5.43;;;17.60;96.70;;;;;;5089202;28;20020;-54
2022/07/30 06:33:31;;;;;;;7.93;5.45;;;17.60;96.60;;;;;;5059880;28;20101;-58
2022/07/30 06:35:56;;;;;;;9.00;5.05;;;17.70;96.50;;;;;;5069989;28;20510;-55
2022/07/30 06:38:22;;;;;;;7.68;5.03;;;17.80;96.40;;;;;;5071977;28;20110;-62
2022/07/30 06:40:48;;;;;;;9.30;4.55;;;17.90;96.10;;;;;;5091140;28;20035;-58
2022/07/30 06:43:13;;;;;;;13.57;4.82;;;18.00;95.80;;;;;;5090485;28;20155;-57
2022/07/30 06:45:39;;;;;;;11.00;4.97;;;18.10;95.10;;;;;;5091097;28;20081;-50
2022/07/30 06:48:05;;;;;;;11.32;5.22;;;18.10;95.10;;;;;;5088581;28;20034;-59
2022/07/30 06:50:30;;;;;;;8.48;5.47;;;18.00;95.20;;;;;;5090391;28;20028;-61
2022/07/30 06:52:56;;;;;;;10.60;5.45;;;18.00;95.30;;;;;;5090518;28;20056;-55
2022/07/30 06:55:22;;;;;;;9.60;5.03;;;18.00;95.40;;;;;;5090708;28;20059;-57
2022/07/30 06:57:48;;;;;;;9.65;5.00;;;18.00;95.40;;;;;;5084679;28;20017;-56
2022/07/30 07:00:14;;;;;;;7.22;4.95;;;18.10;95.30;;;;;;5088260;28;20036;-70
2022/07/30 07:02:41;;;;;;;8.70;5.22;;;18.10;95.20;;;;;;5089647;28;20020;-63
2022/07/30 07:05:07;;;;;;;7.10;5.00;;;18.10;95.00;;;;;;5090008;28;20031;-63
2022/07/30 07:07:36;;;;;;;9.73;5.28;;;18.20;94.90;;;;;;5089974;28;20020;-63
2022/07/30 07:10:03;;;;;;;7.32;4.60;;;18.20;94.70;;;;;;5080287;28;20037;-65
2022/07/30 07:12:29;;;;;;;10.35;4.50;;;18.30;94.40;;;;;;5090084;28;20065;-69
2022/07/30 07:14:54;;;;;;;9.45;4.68;;;18.30;94.30;;;;;;5090670;28;20053;-64
2022/07/30 07:17:20;;;;;;;6.80;4.35;;;18.40;93.80;;;;;;5088813;28;20048;-68
2022/07/30 07:19:45;;;;;;;7.93;4.43;;;18.40;93.50;;;;;;5090039;28;20031;-60
2022/07/30 07:22:11;;;;;;;12.07;4.00;;;18.50;93.40;;;;;;5071590;28;20035;-61
2022/07/30 07:24:37;;;;;;;5.47;3.55;;;18.50;93.30;;;;;;5090817;28;20043;-69
2022/07/30 07:27:02;;;;;;;7.78;4.05;;;18.50;93.10;;;;;;5089816;28;20028;-72
2022/07/30 07:29:28;;;;;;;9.68;3.65;;;18.60;92.70;;;;;;5072701;28;20020;-73
2022/07/30 07:31:54;;;;;;;7.15;3.88;;;18.70;92.60;;;;;;5090047;28;20107;-62
2022/07/30 07:34:19;;;;;;;5.82;3.33;;;18.70;92.10;;;;;;5075689;28;20173;-71
2022/07/30 07:36:45;;;;;;;6.97;3.65;;;18.70;91.70;;;;;;5094266;28;20027;-59
2022/07/30 07:39:10;;;;;;;6.70;3.45;;;18.80;91.60;;;;;;5090987;28;20464;-57
2022/07/30 07:41:36;;;;;;;5.65;2.78;;;18.90;91.70;;;;;;5092824;28;20095;-73
2022/07/30 07:44:04;;;;;;;6.85;2.85;;;19.00;90.80;;;;;;5094208;28;20020;-66
2022/07/30 07:46:30;;;;;;;6.75;2.85;;;19.10;90.00;;;;;;5092962;28;20468;-69
2022/07/30 07:48:56;;;;;;;3.92;2.65;;;19.10;89.40;;;;;;5093174;28;20043;-72
2022/07/30 07:51:21;;;;;;;5.93;2.85;;;19.20;88.50;;;;;;5075476;28;20123;-72
2022/07/30 07:53:47;;;;;;;4.30;2.35;;;19.30;88.00;;;;;;5075171;28;20039;-69
2022/07/30 07:56:13;;;;;;;3.33;2.13;;;19.40;87.50;;;;;;5075853;28;20054;-72
2022/07/30 07:58:39;;;;;;;4.53;2.30;;;19.60;86.60;;;;;;5094302;28;20028;-73
2022/07/30 08:01:04;;;;;;;3.45;2.15;;;19.70;84.40;;;;;;5093198;28;20028;-74
2022/07/30 08:03:30;;;;;;;3.35;1.90;;;19.80;84.40;;;;;;5073753;28;20111;-74
2022/07/30 08:05:55;;;;;;;3.25;2.15;;;19.90;83.80;;;;;;5093932;28;20039;-73
2022/07/30 08:08:21;;;;;;;4.43;2.20;;;20.00;83.00;;;;;;5093230;28;20054;-76
2022/07/30 08:10:47;;;;;;;3.25;2.30;;;20.00;82.80;;;;;;5093519;28;20093;-67
2022/07/30 08:13:14;;;;;;;5.07;2.25;;;20.10;82.30;;;;;;5093022;28;20024;-65
2022/07/30 08:15:40;;;;;;;6.28;2.67;;;20.00;81.70;;;;;;5090507;28;20024;-59
2022/07/30 08:18:06;;;;;;;4.43;2.00;;;20.10;81.30;;;;;;5070746;28;20051;-58
2022/07/30 08:20:34;;;;;;;5.40;2.20;;;20.20;80.80;;;;;;5091917;28;20039;-63
2022/07/30 08:23:00;;;;;;;5.55;1.92;;;20.20;79.60;;;;;;5092727;28;20058;-59
2022/07/30 08:25:26;;;;;;;4.68;2.53;;;20.10;78.30;;;;;;5093330;28;20397;-67
2022/07/30 08:27:52;;;;;;;5.55;2.30;;;20.10;78.90;;;;;;5092309;28;20040;-62
2022/07/30 08:30:18;;;;;;;3.33;1.80;;;20.20;78.30;;;;;;5092733;28;20016;-58
2022/07/30 08:32:44;;;;;;;4.13;2.03;;;20.40;77.00;;;;;;5092902;28;20521;-58
2022/07/30 08:35:10;;;;;;;6.03;2.20;;;20.60;76.20;;;;;;5090769;28;20078;-58
2022/07/30 08:37:36;;;;;;;4.65;2.28;;;20.70;75.40;;;;;;5091757;28;20028;-62
2022/07/30 08:40:03;;;;;;;6.00;2.28;;;20.70;73.90;;;;;;5092931;28;20024;-58
2022/07/30 08:42:32;;;;;;;2.40;1.70;;;20.70;74.30;;;;;;5092284;28;20464;-57
2022/07/30 08:44:57;;;;;;;3.08;1.70;;;20.80;73.80;;;;;;5074531;28;20021;-60
2022/07/30 08:47:29;;;;;;;5.78;2.00;;;20.80;74.50;;;;;;5092315;28;20036;-58
2022/07/30 08:50:00;;;;;;;3.22;1.52;;;20.90;74.00;;;;;;5091777;28;20028;-56
2022/07/30 08:52:26;;;;;;;2.05;1.60;;;20.90;74.10;;;;;;5093243;28;20456;-66
2022/07/30 08:54:53;;;;;;;4.43;2.03;;;21.00;72.50;;;;;;5092972;28;20050;-67
2022/07/30 08:57:19;;;;;;;4.30;2.08;;;21.10;72.60;;;;;;5091416;28;20219;-70
2022/07/30 08:59:45;;;;;;;7.72;1.85;;;21.10;72.20;;;;;;5093431;28;20531;-67
2022/07/30 09:02:10;;;;;;;4.55;2.10;;;21.20;72.20;;;;;;5092694;28;20077;-65
2022/07/30 09:04:36;;;;;;;3.30;1.85;;;21.30;72.10;;;;;;5092575;28;20465;-65
2022/07/30 09:07:01;;;;;;;3.20;1.73;;;21.30;71.70;;;;;;5091528;28;20028;-62
2022/07/30 09:09:27;;;;;;;4.75;2.20;;;21.40;71.90;;;;;;5092795;28;20031;-72
2022/07/30 09:11:53;;;;;;;4.75;1.90;;;21.40;71.30;;;;;;5089581;28;20065;-61
2022/07/30 09:14:18;;;;;;;2.47;1.75;;;21.50;69.40;;;;;;5082241;28;20032;-65
2022/07/30 09:16:45;;;;;;;5.13;2.03;;;21.60;67.80;;;;;;5087557;28;20021;-67
2022/07/30 09:19:19;;;;;;;3.47;1.77;;;21.60;66.70;;;;;;5073363;28;20028;-60
2022/07/30 09:21:59;;;;;;;4.00;1.65;;;21.50;66.40;;;;;;5031126;28;20025;-65
2022/07/30 09:24:25;;;;;;;3.28;1.50;;;21.60;66.10;;;;;;5012762;28;20060;-65
2022/07/30 09:27:03;;;;;;;2.20;1.40;;;21.60;65.80;;;;;;5032216;28;20026;-71
2022/07/30 09:29:30;;;;;;;3.70;1.60;;;21.70;65.90;;;;;;5028549;28;20025;-60
2022/07/30 09:32:03;;;;;;;3.30;1.65;;;21.80;65.80;;;;;;5030133;28;20025;-58
2022/07/30 09:34:35;;;;;;;3.00;1.58;;;22.00;66.20;;;;;;5031048;28;20050;-70
2022/07/30 09:37:08;;;;;;;4.72;1.55;;;22.10;66.30;;;;;;5030874;28;20022;-60
2022/07/30 09:39:36;;;;;;;3.30;1.55;;;22.30;63.60;;;;;;5031366;28;20486;-57
2022/07/30 09:42:15;;;;;;;3.47;1.30;;;22.30;62.10;;;;;;5027478;28;20033;-66
2022/07/30 09:44:40;;;;;;;3.05;1.60;;;22.20;61.70;;;;;;5031128;28;20394;-66
2022/07/30 09:47:06;;;;;;;3.47;1.92;;;22.20;61.30;;;;;;5030395;28;20036;-69
2022/07/30 09:49:32;;;;;;;3.50;1.63;;;22.20;62.20;;;;;;5030767;28;20112;-62
2022/07/30 09:51:57;;;;;;;3.08;1.67;;;22.10;63.20;;;;;;5011301;28;20025;-65
2022/07/30 09:54:42;;;;;;;2.20;1.85;;;22.20;62.70;;;;;;5025724;28;20033;-68
2022/07/30 09:57:08;;;;;;;3.70;1.45;;;22.20;61.10;;;;;;5010875;28;20450;-69
2022/07/30 09:59:33;;;;;;;3.33;1.60;;;22.20;60.60;;;;;;5016461;28;20030;-60
2022/07/30 10:01:59;;;;;;;6.18;1.73;;;22.20;59.00;;;;;;5013449;28;20029;-52
2022/07/30 10:04:31;;;;;;;2.55;1.30;;;22.20;59.20;;;;;;5030140;28;20026;-59
2022/07/30 10:06:59;;;;;;;3.35;1.67;;;22.30;59.30;;;;;;5011114;28;20368;-56
2022/07/30 10:09:28;;;;;;;2.33;1.13;;;22.50;58.20;;;;;;5029741;28;20026;-56
2022/07/30 10:11:56;;;;;;;2.35;1.55;;;22.50;57.70;;;;;;5029405;28;20017;-58
2022/07/30 10:14:27;;;;;;;3.97;1.75;;;22.60;58.20;;;;;;5025671;28;20081;-57
2022/07/30 10:16:53;;;;;;;2.70;1.48;;;22.60;57.20;;;;;;5010083;28;20021;-57
2022/07/30 10:19:19;;;;;;;2.55;1.50;;;22.70;56.10;;;;;;5022669;28;20032;-53
2022/07/30 10:21:45;;;;;;;3.65;1.30;;;22.70;55.90;;;;;;5032760;28;20116;-53
2022/07/30 10:24:12;;;;;;;2.95;1.48;;;22.70;55.60;;;;;;5030695;28;20040;-52
2022/07/30 10:26:38;;;;;;;4.32;1.83;;;22.70;55.80;;;;;;5029944;28;20041;-57
2022/07/30 10:29:04;;;;;;;3.30;1.50;;;22.80;56.30;;;;;;5029925;28;20028;-52
2022/07/30 10:31:29;;;;;;;4.05;1.70;;;22.70;56.30;;;;;;5031063;28;20033;-59
2022/07/30 10:33:56;;;;;;;2.63;1.63;;;22.80;56.80;;;;;;5028477;28;20402;-58
2022/07/30 10:36:23;;;;;;;2.47;1.58;;;22.80;54.20;;;;;;5029476;28;20029;-60
2022/07/30 10:38:50;;;;;;;2.08;1.30;;;22.90;53.10;;;;;;5031915;28;20042;-61
2022/07/30 10:41:34;;;;;;;3.28;1.42;;;23.00;53.80;;;;;;5030231;28;20064;-61
2022/07/30 10:44:22;;;;;;;2.30;1.73;;;23.00;53.90;;;;;;5029628;28;20083;-63
2022/07/30 10:47:20;;;;;;;1.65;1.27;;;23.10;52.40;;;;;;5029138;28;20045;-62
2022/07/30 10:50:12;;;;;;;2.70;1.52;;;23.10;52.30;;;;;;4977685;28;20145;-56
2022/07/30 10:52:49;;;;;;;3.55;1.30;;;23.10;50.20;;;;;;5010732;28;20073;-65
2022/07/30 10:55:16;;;;;;;4.28;1.42;;;23.00;49.80;;;;;;5022124;28;20038;-62
2022/07/30 10:57:57;;;;;;;3.25;1.60;;;23.00;50.10;;;;;;5025619;28;20378;-63
2022/07/30 11:00:24;;;;;;;3.72;1.55;;;23.10;50.10;;;;;;5034856;28;20158;-58
2022/07/30 11:03:16;;;;;;;2.90;1.45;;;23.20;52.10;;;;;;5029640;28;20022;-72
2022/07/30 11:05:44;;;;;;;3.45;1.35;;;23.30;53.20;;;;;;5029621;28;20045;-61
2022/07/30 11:08:35;;;;;;;2.85;1.33;;;23.40;53.80;;;;;;5031928;28;20478;-65
2022/07/30 11:11:02;;;;;;;2.60;1.50;;;23.50;52.90;;;;;;5017338;28;20068;-63
2022/07/30 11:13:59;;;;;;;3.80;1.60;;;23.40;52.60;;;;;;5032219;28;20496;-62
2022/07/30 11:16:31;;;;;;;3.30;1.27;;;23.40;51.60;;;;;;5035522;28;20032;-62
2022/07/30 11:19:17;;;;;;;3.55;1.63;;;23.50;52.00;;;;;;5032753;28;20083;-62
2022/07/30 11:21:44;;;;;;;1.33;1.17;;;23.60;51.60;;;;;;5034034;28;20116;-61
2022/07/30 11:24:40;;;;;;;2.80;1.27;;;23.60;51.70;;;;;;5034245;28;20324;-59
2022/07/30 11:27:06;;;;;;;3.20;1.25;;;23.60;52.10;;;;;;5031344;28;20095;-62
2022/07/30 11:29:34;;;;;;;3.97;1.30;;;23.80;51.20;;;;;;5033253;28;20429;-64
2022/07/30 11:32:35;;;;;;;3.00;1.05;;;24.00;51.30;;;;;;5032620;28;20056;-64
2022/07/30 11:35:26;;;;;;;1.02;0.93;;;24.10;50.20;;;;;;4969063;28;20045;-60
2022/07/30 11:38:06;;;;;;;2.38;0.88;;;24.20;50.10;;;;;;5014946;28;20084;-61
2022/07/30 11:40:35;;;;;;;2.08;1.00;;;24.30;50.60;;;;;;5032739;28;20029;-62
2022/07/30 11:43:15;;;;;;;1.25;1.10;;;24.30;49.80;;;;;;5033388;28;20136;-55
2022/07/30 11:45:42;;;;;;;3.92;1.48;;;24.30;50.70;;;;;;5014101;28;20049;-63
2022/07/30 11:48:12;;;;;;;3.20;1.48;;;24.40;51.10;;;;;;5024423;28;20034;-59
2022/07/30 11:50:39;;;;;;;1.77;0.98;;;24.50;50.30;;;;;;5023477;28;20037;-64
2022/07/30 11:53:07;;;;;;;1.55;1.10;;;24.60;50.70;;;;;;5012693;28;20018;-66
2022/07/30 11:55:38;;;;;;;1.95;0.98;;;24.80;50.30;;;;;;5042561;28;20045;-57
2022/07/30 11:58:07;;;;;;;2.72;0.90;;;24.90;50.10;;;;;;5018324;28;20021;-58
2022/07/30 12:00:46;;;;;;;2.30;1.13;;;24.90;50.30;;;;;;5042177;28;20029;-58
2022/07/30 12:03:15;;;;;;;1.88;1.23;;;25.00;49.70;;;;;;5035061;28;20416;-55
2022/07/30 12:05:41;;;;;;;1.23;0.80;;;25.00;49.70;;;;;;5033801;28;20033;-54
2022/07/30 12:08:07;;;;;;;2.15;1.02;;;25.10;50.00;;;;;;5031707;28;20094;-57
2022/07/30 12:10:38;;;;;;;2.13;1.00;;;25.20;49.70;;;;;;5024926;28;20101;-56
2022/07/30 12:13:14;;;;;;;2.35;1.33;;;25.30;50.20;;;;;;5018118;28;20036;-58
2022/07/30 12:15:45;;;;;;;3.20;1.20;;;25.40;49.60;;;;;;5032593;28;20037;-58
2022/07/30 12:18:14;;;;;;;1.63;0.90;;;25.60;50.10;;;;;;5030273;28;20025;-57
2022/07/30 12:20:40;;;;;;;2.00;0.82;;;25.70;49.50;;;;;;5027767;28;20037;-57
2022/07/30 12:23:11;;;;;;;1.80;1.17;;;25.80;49.10;;;;;;5027467;28;20041;-53
2022/07/30 12:25:38;;;;;;;2.70;1.10;;;26.00;47.90;;;;;;5013580;28;20022;-58
2022/07/30 12:28:04;;;;;;;1.80;1.20;;;26.00;48.00;;;;;;5015408;28;20037;-56
2022/07/30 12:30:30;;;;;;;2.13;1.08;;;25.80;47.80;;;;;;5031930;28;20104;-58
2022/07/30 12:32:55;;;;;;;3.28;1.08;;;25.80;48.40;;;;;;5027089;28;20050;-59
2022/07/30 12:35:21;;;;;;;2.35;1.15;;;25.80;48.20;;;;;;5021948;28;20493;-58
2022/07/30 12:38:03;;;;;;;1.80;0.80;;;25.70;48.40;;;;;;5021824;28;20021;-58
2022/07/30 12:40:28;;;;;;;4.55;1.08;;;25.70;48.50;;;;;;5023437;28;20133;-58
2022/07/30 12:42:54;;;;;;;1.48;1.00;;;25.70;48.30;;;;;;5027899;28;20441;-57
2022/07/30 12:45:31;;;;;;;2.45;1.10;;;25.70;47.70;;;;;;5033020;28;20032;-60
2022/07/30 12:47:58;;;;;;;1.52;0.90;;;25.60;48.10;;;;;;5032246;28;20170;-52
2022/07/30 12:50:25;;;;;;;1.65;0.90;;;25.60;48.70;;;;;;5033300;28;20028;-55